sensor_id;sensor_type;location;lat;lon;timestamp;pressure;altitude;pressure_sealevel;temperature;humidity
73338;BME280;61575;49.908;35.556;2022-12-10T00:03:01;99135.09;;;3.69;100.00
73338;BME280;61575;49.908;35.556;2022-12-10T00:06:06;99132.19;;;3.72;100.00
73338;BME280;61575;49.908;35.556;2022-12-10T00:09:13;99127.59;;;3.74;100.00
73338;BME280;61575;49.908;35.556;2022-12-10T00:12:15;99123.72;;;3.78;100.00
73338;BME280;61575;49.908;35.556;2022-12-10T00:15:17;99120.22;;;3.77;100.00
73338;BME280;61575;49.908;35.556;2022-12-10T00:18:19;99126.63;;;3.75;100.00
73338;BME280;61575;49.908;35.556;2022-12-10T00:21:27;99117.69;;;3.76;100.00
73338;BME280;61575;49.908;35.556;2022-12-10T00:24:29;99118.53;;;3.76;100.00
73338;BME280;61575;49.908;35.556;2022-12-10T00:27:31;99116.03;;;3.75;100.00
73338;BME280;61575;49.908;35.556;2022-12-10T00:30:34;99123.13;;;3.74;100.00
73338;BME280;61575;49.908;35.556;2022-12-10T00:33:36;99123.72;;;3.78;100.00
73338;BME280;61575;49.908;35.556;2022-12-10T00:36:45;99126.09;;;3.81;100.00
73338;BME280;61575;49.908;35.556;2022-12-10T00:39:47;99118.28;;;3.79;100.00
73338;BME280;61575;49.908;35.556;2022-12-10T00:42:49;99125.25;;;3.80;100.00
73338;BME280;61575;49.908;35.556;2022-12-10T00:45:53;99126.09;;;3.81;100.00
73338;BME280;61575;49.908;35.556;2022-12-10T00:48:55;99116.47;;;3.80;100.00
73338;BME280;61575;49.908;35.556;2022-12-10T00:51:56;99115.38;;;3.82;100.00
73338;BME280;61575;49.908;35.556;2022-12-10T00:54:58;99114.28;;;3.85;100.00
73338;BME280;61575;49.908;35.556;2022-12-10T00:58:00;99113.31;;;3.86;100.00
73338;BME280;61575;49.908;35.556;2022-12-10T01:01:17;99108.13;;;3.84;100.00
73338;BME280;61575;49.908;35.556;2022-12-10T01:04:20;99108.53;;;3.80;100.00
73338;BME280;61575;49.908;35.556;2022-12-10T01:07:21;99114.41;;;3.83;100.00
73338;BME280;61575;49.908;35.556;2022-12-10T01:10:24;99114.97;;;3.87;100.00
73338;BME280;61575;49.908;35.556;2022-12-10T01:13:26;99116.78;;;3.86;100.00
73338;BME280;61575;49.908;35.556;2022-12-10T01:16:28;99130.06;;;3.86;100.00
73338;BME280;61575;49.908;35.556;2022-12-10T01:19:31;99110.06;;;3.82;100.00
73338;BME280;61575;49.908;35.556;2022-12-10T01:22:35;99114.41;;;3.83;100.00
73338;BME280;61575;49.908;35.556;2022-12-10T01:25:37;99119.56;;;3.85;100.00
73338;BME280;61575;49.908;35.556;2022-12-10T01:28:41;99111.63;;;3.85;100.00
73338;BME280;61575;49.908;35.556;2022-12-10T01:31:43;99109.22;;;3.82;100.00
73338;BME280;61575;49.908;35.556;2022-12-10T01:34:46;99110.91;;;3.83;100.00
73338;BME280;61575;49.908;35.556;2022-12-10T01:37:47;99099.78;;;3.89;100.00
73338;BME280;61575;49.908;35.556;2022-12-10T01:40:49;99096.56;;;3.85;100.00
73338;BME280;61575;49.908;35.556;2022-12-10T01:47:11;99083.03;;;3.88;100.00
73338;BME280;61575;49.908;35.556;2022-12-10T01:50:13;99078.38;;;3.81;100.00
73338;BME280;61575;49.908;35.556;2022-12-10T01:53:16;99085.09;;;3.85;100.00
73338;BME280;61575;49.908;35.556;2022-12-10T01:56:19;99083.16;;;3.87;100.00
73338;BME280;61575;49.908;35.556;2022-12-10T01:59:21;99079.53;;;3.88;100.00
73338;BME280;61575;49.908;35.556;2022-12-10T02:02:46;99073.53;;;3.86;100.00
73338;BME280;61575;49.908;35.556;2022-12-10T02:06:15;99075.91;;;3.89;100.00
73338;BME280;61575;49.908;35.556;2022-12-10T02:09:25;99069.06;;;3.86;100.00
73338;BME280;61575;49.908;35.556;2022-12-10T02:16:04;99057.88;;;3.83;100.00
73338;BME280;61575;49.908;35.556;2022-12-10T02:29:29;99039.38;;;3.93;100.00
73338;BME280;61575;49.908;35.556;2022-12-10T02:32:35;99048.03;;;3.95;100.00
73338;BME280;61575;49.908;35.556;2022-12-10T02:35:40;99045.50;;;3.93;100.00
73338;BME280;61575;49.908;35.556;2022-12-10T02:38:44;99040.22;;;3.93;100.00
73338;BME280;61575;49.908;35.556;2022-12-10T02:41:54;99043.44;;;3.97;100.00
73338;BME280;61575;49.908;35.556;2022-12-10T02:44:57;99047.91;;;3.96;100.00
73338;BME280;61575;49.908;35.556;2022-12-10T02:48:02;99045.38;;;3.95;100.00
73338;BME280;61575;49.908;35.556;2022-12-10T02:51:12;99043.44;;;3.97;100.00
73338;BME280;61575;49.908;35.556;2022-12-10T02:54:34;99045.25;;;3.96;100.00
73338;BME280;61575;49.908;35.556;2022-12-10T03:01:23;99030.31;;;3.95;100.00
73338;BME280;61575;49.908;35.556;2022-12-10T03:11:13;99013.56;;;3.95;100.00
73338;BME280;61575;49.908;35.556;2022-12-10T03:14:21;99018.16;;;3.93;100.00
73338;BME280;61575;49.908;35.556;2022-12-10T03:17:27;99020.41;;;3.97;100.00
73338;BME280;61575;49.908;35.556;2022-12-10T03:20:41;99016.78;;;3.98;100.00
73338;BME280;61575;49.908;35.556;2022-12-10T03:23:46;99021.38;;;3.96;100.00
73338;BME280;61575;49.908;35.556;2022-12-10T03:26:49;99039.94;;;3.96;100.00
73338;BME280;61575;49.908;35.556;2022-12-10T03:29:54;99036.59;;;3.94;100.00
73338;BME280;61575;49.908;35.556;2022-12-10T03:32:58;99032.00;;;3.96;100.00
73338;BME280;61575;49.908;35.556;2022-12-10T03:36:01;99026.69;;;3.96;100.00
73338;BME280;61575;49.908;35.556;2022-12-10T03:39:03;99028.50;;;3.96;100.00
73338;BME280;61575;49.908;35.556;2022-12-10T03:42:06;99029.06;;;3.99;100.00
73338;BME280;61575;49.908;35.556;2022-12-10T03:45:09;99028.81;;;4.02;100.00
73338;BME280;61575;49.908;35.556;2022-12-10T03:48:11;99028.09;;;4.00;100.00
73338;BME280;61575;49.908;35.556;2022-12-10T03:51:13;99030.88;;;3.99;100.00
73338;BME280;61575;49.908;35.556;2022-12-10T03:54:15;99034.09;;;4.02;100.00
73338;BME280;61575;49.908;35.556;2022-12-10T03:57:17;99042.63;;;4.06;100.00
73338;BME280;61575;49.908;35.556;2022-12-10T04:00:19;99031.75;;;4.09;100.00
73338;BME280;61575;49.908;35.556;2022-12-10T04:03:21;99025.47;;;4.10;100.00
73338;BME280;61575;49.908;35.556;2022-12-10T04:06:23;99032.88;;;4.06;100.00
73338;BME280;61575;49.908;35.556;2022-12-10T04:09:25;99033.72;;;4.07;100.00
73338;BME280;61575;49.908;35.556;2022-12-10T04:12:27;99031.75;;;4.09;100.00
73338;BME280;61575;49.908;35.556;2022-12-10T04:15:29;99032.47;;;4.11;100.00
73338;BME280;61575;49.908;35.556;2022-12-10T04:18:49;99024.38;;;4.12;100.00
73338;BME280;61575;49.908;35.556;2022-12-10T04:21:51;99015.31;;;4.15;100.00
73338;BME280;61575;49.908;35.556;2022-12-10T04:25:12;99018.66;;;4.17;100.00
73338;BME280;61575;49.908;35.556;2022-12-10T04:28:46;99018.66;;;4.17;100.00
73338;BME280;61575;49.908;35.556;2022-12-10T04:31:48;99013.50;;;4.15;100.00
73338;BME280;61575;49.908;35.556;2022-12-10T04:34:51;99017.00;;;4.16;100.00
73338;BME280;61575;49.908;35.556;2022-12-10T04:37:53;99023.84;;;4.18;100.00
73338;BME280;61575;49.908;35.556;2022-12-10T04:40:55;99020.22;;;4.19;100.00
73338;BME280;61575;49.908;35.556;2022-12-10T04:43:57;99016.59;;;4.20;100.00
73338;BME280;61575;49.908;35.556;2022-12-10T04:47:00;99019.66;;;4.26;100.00
73338;BME280;61575;49.908;35.556;2022-12-10T04:50:02;99026.94;;;4.23;100.00
73338;BME280;61575;49.908;35.556;2022-12-10T04:53:04;99026.09;;;4.23;100.00
73338;BME280;61575;49.908;35.556;2022-12-10T04:56:06;99025.81;;;4.26;100.00
73338;BME280;61575;49.908;35.556;2022-12-10T04:59:11;99023.31;;;4.25;100.00
73338;BME280;61575;49.908;35.556;2022-12-10T05:02:13;99025.69;;;4.28;100.00
73338;BME280;61575;49.908;35.556;2022-12-10T05:05:15;99029.31;;;4.27;100.00
73338;BME280;61575;49.908;35.556;2022-12-10T05:08:17;99026.53;;;4.28;100.00
73338;BME280;61575;49.908;35.556;2022-12-10T05:11:21;99029.03;;;4.30;100.00
73338;BME280;61575;49.908;35.556;2022-12-10T05:14:23;99032.41;;;4.32;100.00
73338;BME280;61575;49.908;35.556;2022-12-10T05:17:25;99032.41;;;4.32;100.00
73338;BME280;61575;49.908;35.556;2022-12-10T05:20:27;99031.56;;;4.31;100.00
73338;BME280;61575;49.908;35.556;2022-12-10T05:23:29;99030.84;;;4.29;100.00
73338;BME280;61575;49.908;35.556;2022-12-10T05:26:31;99040.22;;;4.33;100.00
73338;BME280;61575;49.908;35.556;2022-12-10T05:29:33;99036.47;;;4.36;100.00
73338;BME280;61575;49.908;35.556;2022-12-10T05:32:36;99041.78;;;4.36;100.00
73338;BME280;61575;49.908;35.556;2022-12-10T05:35:38;99035.63;;;4.35;100.00
73338;BME280;61575;49.908;35.556;2022-12-10T05:38:40;99040.78;;;4.37;100.00
73338;BME280;61575;49.908;35.556;2022-12-10T05:41:42;99044.41;;;4.36;100.00
73338;BME280;61575;49.908;35.556;2022-12-10T05:44:45;99046.94;;;4.37;100.00
73338;BME280;61575;49.908;35.556;2022-12-10T05:47:47;99063.44;;;4.41;100.00
73338;BME280;61575;49.908;35.556;2022-12-10T05:50:49;99064.28;;;4.41;100.00
73338;BME280;61575;49.908;35.556;2022-12-10T05:53:52;99044.16;;;4.39;100.00
73338;BME280;61575;49.908;35.556;2022-12-10T05:56:54;99067.75;;;4.42;100.00
73338;BME280;61575;49.908;35.556;2022-12-10T05:59:56;99055.19;;;4.44;100.00
73338;BME280;61575;49.908;35.556;2022-12-10T06:02:58;99057.16;;;4.42;100.00
73338;BME280;61575;49.908;35.556;2022-12-10T06:06:00;99055.91;;;4.46;100.00
73338;BME280;61575;49.908;35.556;2022-12-10T06:09:03;99061.91;;;4.48;100.00
73338;BME280;61575;49.908;35.556;2022-12-10T06:12:05;99063.88;;;4.46;100.00
73338;BME280;61575;49.908;35.556;2022-12-10T06:15:07;99057.19;;;4.51;100.00
73338;BME280;61575;49.908;35.556;2022-12-10T06:18:09;99049.91;;;4.53;100.00
73338;BME280;61575;49.908;35.556;2022-12-10T06:21:14;99048.81;;;4.56;100.00
73338;BME280;61575;49.908;35.556;2022-12-10T06:24:16;99053.84;;;4.59;100.00
73338;BME280;61575;49.908;35.556;2022-12-10T06:27:18;99042.53;;;4.57;100.00
73338;BME280;61575;49.908;35.556;2022-12-10T06:30:20;99048.53;;;4.59;100.00
73338;BME280;61575;49.908;35.556;2022-12-10T06:33:22;99038.06;;;4.58;100.00
73338;BME280;61575;49.908;35.556;2022-12-10T06:36:23;99037.22;;;4.57;100.00
73338;BME280;61575;49.908;35.556;2022-12-10T06:39:25;99039.59;;;4.60;100.00
73338;BME280;61575;49.908;35.556;2022-12-10T06:42:27;99037.22;;;4.57;100.00
73338;BME280;61575;49.908;35.556;2022-12-10T06:45:29;99044.63;;;4.63;100.00
73338;BME280;61575;49.908;35.556;2022-12-10T06:48:31;99047.28;;;4.63;100.00
73338;BME280;61575;49.908;35.556;2022-12-10T06:51:33;99041.56;;;4.68;100.00
73338;BME280;61575;49.908;35.556;2022-12-10T06:54:35;99052.19;;;4.68;100.00
73338;BME280;61575;49.908;35.556;2022-12-10T06:57:37;99051.06;;;4.70;100.00
73338;BME280;61575;49.908;35.556;2022-12-10T07:00:39;99043.94;;;4.71;100.00
73338;BME280;61575;49.908;35.556;2022-12-10T07:03:41;99043.09;;;4.70;100.00
73338;BME280;61575;49.908;35.556;2022-12-10T07:06:44;99047.44;;;4.71;100.00
73338;BME280;61575;49.908;35.556;2022-12-10T07:09:46;99052.03;;;4.69;100.00
73338;BME280;61575;49.908;35.556;2022-12-10T07:12:48;99044.91;;;4.70;100.00
73338;BME280;61575;49.908;35.556;2022-12-10T07:15:50;99033.47;;;4.69;100.00
73338;BME280;61575;49.908;35.556;2022-12-10T07:18:53;99033.88;;;4.74;100.00
73338;BME280;61575;49.908;35.556;2022-12-10T07:21:55;99046.19;;;4.75;100.00
73338;BME280;61575;49.908;35.556;2022-12-10T07:24:57;99032.06;;;4.75;100.00
73338;BME280;61575;49.908;35.556;2022-12-10T07:27:59;99028.88;;;4.81;100.00
73338;BME280;61575;49.908;35.556;2022-12-10T07:31:05;99022.00;;;4.78;100.00
73338;BME280;61575;49.908;35.556;2022-12-10T07:34:09;99016.69;;;4.78;100.00
73338;BME280;61575;49.908;35.556;2022-12-10T07:37:11;99022.16;;;4.77;100.00
73338;BME280;61575;49.908;35.556;2022-12-10T07:40:13;99020.34;;;4.77;100.00
73338;BME280;61575;49.908;35.556;2022-12-10T07:43:15;99012.94;;;4.81;100.00
73338;BME280;61575;49.908;35.556;2022-12-10T07:46:23;99023.56;;;4.81;100.00
73338;BME280;61575;49.908;35.556;2022-12-10T07:49:26;99029.28;;;4.86;100.00
73338;BME280;61575;49.908;35.556;2022-12-10T07:52:28;99030.13;;;4.86;100.00
73338;BME280;61575;49.908;35.556;2022-12-10T07:55:29;99025.38;;;4.90;100.00
73338;BME280;61575;49.908;35.556;2022-12-10T07:58:32;99028.16;;;4.88;100.00
73338;BME280;61575;49.908;35.556;2022-12-10T08:01:34;99017.28;;;4.92;100.00
73338;BME280;61575;49.908;35.556;2022-12-10T08:04:36;99011.41;;;4.98;100.00
73338;BME280;61575;49.908;35.556;2022-12-10T08:07:39;99009.59;;;4.98;100.00
73338;BME280;61575;49.908;35.556;2022-12-10T08:10:41;98991.53;;;5.02;100.00
73338;BME280;61575;49.908;35.556;2022-12-10T08:13:43;98992.25;;;5.04;100.00
73338;BME280;61575;49.908;35.556;2022-12-10T08:16:45;98999.94;;;5.07;100.00
73338;BME280;61575;49.908;35.556;2022-12-10T08:19:47;98999.66;;;5.10;100.00
73338;BME280;61575;49.908;35.556;2022-12-10T08:22:49;98996.72;;;5.03;100.00
73338;BME280;61575;49.908;35.556;2022-12-10T08:25:52;98985.53;;;5.09;100.00
73338;BME280;61575;49.908;35.556;2022-12-10T08:28:54;98981.47;;;5.15;100.00
73338;BME280;61575;49.908;35.556;2022-12-10T08:31:56;98979.66;;;5.15;100.00
73338;BME280;61575;49.908;35.556;2022-12-10T08:34:58;98979.22;;;5.10;100.00
73338;BME280;61575;49.908;35.556;2022-12-10T08:38:00;98976.38;;;5.21;100.00
73338;BME280;61575;49.908;35.556;2022-12-10T08:41:10;98980.88;;;5.21;100.00
73338;BME280;61575;49.908;35.556;2022-12-10T08:44:13;98968.59;;;5.20;100.00
73338;BME280;61575;49.908;35.556;2022-12-10T08:47:15;98956.28;;;5.19;100.00
73338;BME280;61575;49.908;35.556;2022-12-10T08:50:17;98944.69;;;5.20;100.00
73338;BME280;61575;49.908;35.556;2022-12-10T08:53:19;98943.66;;;5.21;100.00
73338;BME280;61575;49.908;35.556;2022-12-10T08:56:21;98930.25;;;5.22;100.00
73338;BME280;61575;49.908;35.556;2022-12-10T13:38:04;98602.19;;;4.81;100.00
73338;BME280;61575;49.908;35.556;2022-12-10T13:41:08;98601.06;;;5.37;100.00
73338;BME280;61575;49.908;35.556;2022-12-10T14:07:53;98575.19;;;6.85;100.00
73338;BME280;61575;49.908;35.556;2022-12-10T14:10:59;98561.72;;;6.95;100.00
73338;BME280;61575;49.908;35.556;2022-12-10T14:14:02;98570.91;;;7.08;100.00
73338;BME280;61575;49.908;35.556;2022-12-10T14:17:15;98568.75;;;7.20;100.00
73338;BME280;61575;49.908;35.556;2022-12-10T14:20:23;98561.44;;;7.22;100.00
73338;BME280;61575;49.908;35.556;2022-12-10T14:23:28;98560.94;;;7.35;100.00
73338;BME280;61575;49.908;35.556;2022-12-10T14:26:59;98550.13;;;7.44;100.00
73338;BME280;61575;49.908;35.556;2022-12-10T14:33:08;98544.63;;;7.46;100.00
73338;BME280;61575;49.908;35.556;2022-12-10T14:36:20;98555.13;;;7.56;100.00
73338;BME280;61575;49.908;35.556;2022-12-10T14:39:29;98552.78;;;7.61;100.00
73338;BME280;61575;49.908;35.556;2022-12-10T14:42:31;98564.94;;;7.63;100.00
73338;BME280;61575;49.908;35.556;2022-12-10T14:45:49;98548.44;;;7.68;100.00
73338;BME280;61575;49.908;35.556;2022-12-10T14:48:53;98544.44;;;7.72;100.00
73338;BME280;61575;49.908;35.556;2022-12-10T14:51:56;98548.59;;;7.74;100.00
73338;BME280;61575;49.908;35.556;2022-12-10T14:54:58;98541.25;;;7.76;100.00
73338;BME280;61575;49.908;35.556;2022-12-10T14:58:02;98534.25;;;7.75;100.00
73338;BME280;61575;49.908;35.556;2022-12-10T15:01:12;98538.59;;;7.76;100.00
73338;BME280;61575;49.908;35.556;2022-12-10T15:04:19;98548.44;;;7.76;100.00
73338;BME280;61575;49.908;35.556;2022-12-10T15:07:32;98538.59;;;7.85;100.00
73338;BME280;61575;49.908;35.556;2022-12-10T15:10:38;98536.75;;;7.85;100.00
73338;BME280;61575;49.908;35.556;2022-12-10T15:13:44;98529.41;;;7.87;100.00
73338;BME280;61575;49.908;35.556;2022-12-10T15:16:48;98533.75;;;7.88;100.00
73338;BME280;61575;49.908;35.556;2022-12-10T15:19:50;98527.91;;;7.85;100.00
73338;BME280;61575;49.908;35.556;2022-12-10T15:22:52;98526.41;;;7.82;100.00
73338;BME280;61575;49.908;35.556;2022-12-10T15:26:03;98521.06;;;7.90;100.00
73338;BME280;61575;49.908;35.556;2022-12-10T15:29:32;98517.22;;;7.93;100.00
73338;BME280;61575;49.908;35.556;2022-12-10T15:32:35;98517.72;;;7.96;100.00
73338;BME280;61575;49.908;35.556;2022-12-10T15:35:38;98520.38;;;7.96;100.00
73338;BME280;61575;49.908;35.556;2022-12-10T15:38:40;98524.53;;;7.99;100.00
73338;BME280;61575;49.908;35.556;2022-12-10T15:41:50;98526.56;;;7.97;100.00
73338;BME280;61575;49.908;35.556;2022-12-10T15:45:01;98520.03;;;7.99;100.00
73338;BME280;61575;49.908;35.556;2022-12-10T15:48:10;98508.69;;;7.97;100.00
73338;BME280;61575;49.908;35.556;2022-12-10T15:51:14;98515.19;;;8.03;100.00
73338;BME280;61575;49.908;35.556;2022-12-10T15:57:37;98515.19;;;8.03;100.00
73338;BME280;61575;49.908;35.556;2022-12-10T16:00:46;98513.69;;;8.08;100.00
73338;BME280;61575;49.908;35.556;2022-12-10T16:03:49;98520.00;;;8.07;100.00
73338;BME280;61575;49.908;35.556;2022-12-10T16:06:51;98514.69;;;8.07;100.00
73338;BME280;61575;49.908;35.556;2022-12-10T16:09:53;98512.31;;;8.12;100.00
73338;BME280;61575;49.908;35.556;2022-12-10T16:13:12;98516.66;;;8.13;100.00
73338;BME280;61575;49.908;35.556;2022-12-10T16:16:15;98510.97;;;8.17;100.00
73338;BME280;61575;49.908;35.556;2022-12-10T16:19:17;98509.31;;;8.16;100.00
73338;BME280;61575;49.908;35.556;2022-12-10T16:22:19;98505.16;;;8.13;100.00
73338;BME280;61575;49.908;35.556;2022-12-10T16:25:23;98511.47;;;8.20;100.00
73338;BME280;61575;49.908;35.556;2022-12-10T16:28:26;98508.31;;;8.17;100.00
73338;BME280;61575;49.908;35.556;2022-12-10T16:31:28;98505.94;;;8.22;100.00
73338;BME280;61575;49.908;35.556;2022-12-10T16:34:31;98493.75;;;8.27;100.00
73338;BME280;61575;49.908;35.556;2022-12-10T16:37:33;98506.09;;;8.28;100.00
73338;BME280;61575;49.908;35.556;2022-12-10T16:40:35;98503.59;;;8.27;100.00
73338;BME280;61575;49.908;35.556;2022-12-10T16:43:38;98502.41;;;8.29;100.00
73338;BME280;61575;49.908;35.556;2022-12-10T16:46:40;98495.91;;;8.32;100.00
73338;BME280;61575;49.908;35.556;2022-12-10T16:49:43;98496.41;;;8.35;100.00
73338;BME280;61575;49.908;35.556;2022-12-10T16:52:45;98491.56;;;8.39;100.00
73338;BME280;61575;49.908;35.556;2022-12-10T16:55:48;98489.19;;;8.44;100.00
73338;BME280;61575;49.908;35.556;2022-12-10T16:58:51;98479.19;;;8.46;100.00
73338;BME280;61575;49.908;35.556;2022-12-10T17:01:53;98475.31;;;8.49;100.00
73338;BME280;61575;49.908;35.556;2022-12-10T17:04:56;98480.97;;;8.54;100.00
73338;BME280;61575;49.908;35.556;2022-12-10T17:07:58;98482.75;;;8.61;100.00
73338;BME280;61575;49.908;35.556;2022-12-10T17:11:00;98469.06;;;8.64;100.00
73338;BME280;61575;49.908;35.556;2022-12-10T17:14:23;98482.25;;;8.66;100.00
73338;BME280;61575;49.908;35.556;2022-12-10T17:17:25;98483.25;;;8.65;100.00
73338;BME280;61575;49.908;35.556;2022-12-10T17:20:27;98474.69;;;8.69;100.00
73338;BME280;61575;49.908;35.556;2022-12-10T17:23:30;98477.56;;;8.68;100.00
73338;BME280;61575;49.908;35.556;2022-12-10T17:26:36;98475.72;;;8.68;100.00
73338;BME280;61575;49.908;35.556;2022-12-10T17:29:41;98461.66;;;8.74;100.00
73338;BME280;61575;49.908;35.556;2022-12-10T17:32:43;98475.53;;;8.70;100.00
73338;BME280;61575;49.908;35.556;2022-12-10T17:35:46;98464.31;;;8.74;100.00
73338;BME280;61575;49.908;35.556;2022-12-10T17:38:49;98455.28;;;8.75;100.00
73338;BME280;61575;49.908;35.556;2022-12-10T17:41:52;98463.13;;;8.77;100.00
73338;BME280;61575;49.908;35.556;2022-12-10T17:44:54;98456.78;;;8.78;100.00
73338;BME280;61575;49.908;35.556;2022-12-10T17:47:56;98455.13;;;8.77;100.00
73338;BME280;61575;49.908;35.556;2022-12-10T17:50:58;98470.00;;;8.71;100.00
73338;BME280;61575;49.908;35.556;2022-12-10T17:54:00;98460.63;;;8.75;100.00
73338;BME280;61575;49.908;35.556;2022-12-10T17:57:04;98467.28;;;8.80;100.00
73338;BME280;61575;49.908;35.556;2022-12-10T18:00:12;98455.94;;;8.77;100.00
73338;BME280;61575;49.908;35.556;2022-12-10T18:03:15;98451.44;;;8.78;100.00
73338;BME280;61575;49.908;35.556;2022-12-10T18:06:23;98451.25;;;8.80;100.00
73338;BME280;61575;49.908;35.556;2022-12-10T18:09:29;98451.91;;;8.82;100.00
73338;BME280;61575;49.908;35.556;2022-12-10T18:12:31;98453.22;;;8.86;100.00
73338;BME280;61575;49.908;35.556;2022-12-10T18:15:33;98459.75;;;8.83;100.00
73338;BME280;61575;49.908;35.556;2022-12-10T18:18:35;98468.91;;;8.89;100.00
73338;BME280;61575;49.908;35.556;2022-12-10T18:21:36;98451.03;;;8.89;100.00
73338;BME280;61575;49.908;35.556;2022-12-10T18:24:39;98461.34;;;8.92;100.00
73338;BME280;61575;49.908;35.556;2022-12-10T18:27:41;98462.53;;;8.90;100.00
73338;BME280;61575;49.908;35.556;2022-12-10T18:30:43;98469.38;;;8.92;100.00
73338;BME280;61575;49.908;35.556;2022-12-10T18:33:48;98460.53;;;8.92;100.00
73338;BME280;61575;49.908;35.556;2022-12-10T18:36:50;98472.00;;;9.00;100.00
73338;BME280;61575;49.908;35.556;2022-12-10T18:39:53;98457.97;;;8.98;100.00
73338;BME280;61575;49.908;35.556;2022-12-10T18:42:55;98463.13;;;9.00;100.00
73338;BME280;61575;49.908;35.556;2022-12-10T18:45:57;98460.28;;;9.01;100.00
73338;BME280;61575;49.908;35.556;2022-12-10T18:48:59;98459.09;;;9.04;100.00
73338;BME280;61575;49.908;35.556;2022-12-10T18:52:02;98452.44;;;9.00;100.00
73338;BME280;61575;49.908;35.556;2022-12-10T18:55:04;98455.28;;;8.98;100.00
73338;BME280;61575;49.908;35.556;2022-12-10T18:58:08;98449.41;;;9.03;100.00
73338;BME280;61575;49.908;35.556;2022-12-10T19:01:12;98449.53;;;9.09;100.00
73338;BME280;61575;49.908;35.556;2022-12-10T19:04:14;98453.88;;;9.11;100.00
73338;BME280;61575;49.908;35.556;2022-12-10T19:07:16;98454.03;;;9.09;100.00
73338;BME280;61575;49.908;35.556;2022-12-10T19:10:21;98459.38;;;9.09;100.00
73338;BME280;61575;49.908;35.556;2022-12-10T19:13:23;98459.69;;;9.14;100.00
73338;BME280;61575;49.908;35.556;2022-12-10T19:16:25;98455.53;;;9.12;100.00
73338;BME280;61575;49.908;35.556;2022-12-10T19:19:28;98451.47;;;9.16;100.00
73338;BME280;61575;49.908;35.556;2022-12-10T19:22:30;98452.31;;;9.16;100.00
73338;BME280;61575;49.908;35.556;2022-12-10T19:25:32;98447.31;;;9.13;100.00
73338;BME280;61575;49.908;35.556;2022-12-10T19:28:34;98458.50;;;9.17;100.00
73338;BME280;61575;49.908;35.556;2022-12-10T19:31:36;98457.66;;;9.16;100.00
73338;BME280;61575;49.908;35.556;2022-12-10T19:34:39;98442.44;;;9.17;100.00
73338;BME280;61575;49.908;35.556;2022-12-10T19:37:41;98455.34;;;9.13;100.00
73338;BME280;61575;49.908;35.556;2022-12-10T19:40:45;98460.97;;;9.18;100.00
73338;BME280;61575;49.908;35.556;2022-12-10T19:43:48;98455.81;;;9.17;100.00
73338;BME280;61575;49.908;35.556;2022-12-10T19:46:50;98458.50;;;9.17;100.00
73338;BME280;61575;49.908;35.556;2022-12-10T19:49:52;98459.97;;;9.19;100.00
73338;BME280;61575;49.908;35.556;2022-12-10T19:52:54;98453.97;;;9.17;100.00
73338;BME280;61575;49.908;35.556;2022-12-10T19:55:56;98451.47;;;9.16;100.00
73338;BME280;61575;49.908;35.556;2022-12-10T19:59:10;98458.97;;;9.20;100.00
73338;BME280;61575;49.908;35.556;2022-12-10T20:02:15;98465.97;;;9.21;100.00
73338;BME280;61575;49.908;35.556;2022-12-10T20:05:18;98462.81;;;9.18;100.00
73338;BME280;61575;49.908;35.556;2022-12-10T20:08:22;98468.34;;;9.16;100.00
73338;BME280;61575;49.908;35.556;2022-12-10T20:11:24;98459.16;;;9.19;100.00
73338;BME280;61575;49.908;35.556;2022-12-10T20:14:30;98459.16;;;9.19;100.00
73338;BME280;61575;49.908;35.556;2022-12-10T20:17:35;98455.28;;;9.21;100.00
73338;BME280;61575;49.908;35.556;2022-12-10T20:20:36;98465.31;;;9.19;100.00
73338;BME280;61575;49.908;35.556;2022-12-10T20:23:39;98462.28;;;9.22;100.00
73338;BME280;61575;49.908;35.556;2022-12-10T20:26:55;98447.91;;;9.23;100.00
73338;BME280;61575;49.908;35.556;2022-12-10T20:29:57;98458.59;;;9.23;100.00
73338;BME280;61575;49.908;35.556;2022-12-10T20:32:59;98452.25;;;9.24;100.00
73338;BME280;61575;49.908;35.556;2022-12-10T20:36:24;98460.63;;;9.21;100.00
73338;BME280;61575;49.908;35.556;2022-12-10T20:39:30;98469.78;;;9.27;100.00
73338;BME280;61575;49.908;35.556;2022-12-10T20:42:33;98462.94;;;9.24;100.00
73338;BME280;61575;49.908;35.556;2022-12-10T20:45:36;98460.25;;;9.24;100.00
73338;BME280;61575;49.908;35.556;2022-12-10T20:48:39;98455.94;;;9.23;100.00
73338;BME280;61575;49.908;35.556;2022-12-10T20:51:43;98464.44;;;9.27;100.00
73338;BME280;61575;49.908;35.556;2022-12-10T20:54:45;98462.09;;;9.24;100.00
73338;BME280;61575;49.908;35.556;2022-12-10T20:57:47;98451.88;;;9.27;100.00
73338;BME280;61575;49.908;35.556;2022-12-10T21:00:50;98461.09;;;9.25;100.00
73338;BME280;61575;49.908;35.556;2022-12-10T21:03:52;98459.91;;;9.27;100.00
73338;BME280;61575;49.908;35.556;2022-12-10T21:06:54;98451.69;;;9.29;100.00
73338;BME280;61575;49.908;35.556;2022-12-10T21:09:57;98450.22;;;9.26;100.00
73338;BME280;61575;49.908;35.556;2022-12-10T21:12:59;98452.06;;;9.26;100.00
73338;BME280;61575;49.908;35.556;2022-12-10T21:16:03;98454.19;;;9.30;100.00
73338;BME280;61575;49.908;35.556;2022-12-10T21:19:05;98446.00;;;9.32;100.00
73338;BME280;61575;49.908;35.556;2022-12-10T21:22:11;98445.16;;;9.31;100.00
73338;BME280;61575;49.908;35.556;2022-12-10T21:25:13;98442.66;;;9.30;100.00
73338;BME280;61575;49.908;35.556;2022-12-10T21:28:15;98437.69;;;9.27;100.00
73338;BME280;61575;49.908;35.556;2022-12-10T21:31:23;98450.50;;;9.31;100.00
73338;BME280;61575;49.908;35.556;2022-12-10T21:34:25;98460.19;;;9.32;100.00
73338;BME280;61575;49.908;35.556;2022-12-10T21:37:28;98459.38;;;9.32;100.00
73338;BME280;61575;49.908;35.556;2022-12-10T21:40:30;98459.84;;;9.35;100.00